createdAt,value
2022-11-07T00:23:36.099Z,6
2022-11-07T00:51:57.249Z,5
2022-11-07T01:20:23.124Z,4
2022-11-07T01:48:49.590Z,6
2022-11-07T02:17:13.621Z,4
2022-11-07T02:45:37.985Z,4
2022-11-07T03:14:01.126Z,4
2022-11-07T03:42:25.194Z,6
2022-11-07T04:10:48.785Z,4
2022-11-07T04:39:12.343Z,6
2022-11-07T05:07:38.256Z,4
2022-11-07T05:36:02.779Z,4
2022-11-07T06:04:26.870Z,5
2022-11-07T06:32:54.004Z,5
2022-11-07T07:01:20.991Z,4
2022-11-07T07:29:46.162Z,6
2022-11-07T07:58:13.513Z,7
2022-11-07T08:26:45.591Z,4
2022-11-07T08:55:10.626Z,4
2022-11-07T09:23:27.752Z,9
2022-11-07T09:51:53.045Z,10
2022-11-07T10:20:24.876Z,6
2022-11-07T10:48:38.008Z,10
2022-11-07T11:17:05.629Z,4
2022-11-07T11:45:28.148Z,6
2022-11-07T12:13:50.372Z,5
2022-11-07T12:42:14.687Z,4
2022-11-07T13:10:36.788Z,4
2022-11-07T13:38:59.491Z,3
2022-11-07T14:07:26.527Z,4
2022-11-07T14:35:35.931Z,5
2022-11-07T15:03:51.179Z,7
2022-11-07T15:32:12.348Z,7
2022-11-07T16:00:32.927Z,7
2022-11-07T16:28:48.714Z,7
2022-11-07T16:57:06.547Z,9
2022-11-07T17:25:23.536Z,10
2022-11-07T17:53:45.953Z,7
2022-11-07T18:22:04.961Z,5
2022-11-07T18:50:29.557Z,12
2022-11-07T19:18:37.453Z,23
2022-11-07T19:46:55.641Z,28
2022-11-07T20:15:14.046Z,19
2022-11-07T20:43:39.727Z,14
2022-11-07T21:11:52.925Z,22
2022-11-07T21:40:13.646Z,11
2022-11-07T22:08:35.576Z,19
2022-11-07T22:36:56.627Z,13
2022-11-07T23:05:18.105Z,9
2022-11-07T23:33:34.230Z,14
